createdAt,value
2023-02-17T00:01:33.313Z,101308.91
2023-02-17T00:04:00.926Z,101312.75
2023-02-17T00:06:30.670Z,101308.63
2023-02-17T00:08:59.977Z,101304.50
2023-02-17T00:11:28.446Z,101302.13
2023-02-17T00:13:56.602Z,101305.00
2023-02-17T00:16:28.047Z,101305.38
2023-02-17T00:19:00.399Z,101298.25
2023-02-17T00:21:31.742Z,101302.78
2023-02-17T00:23:59.930Z,101292.56
2023-02-17T00:26:27.505Z,101289.41
2023-02-17T00:28:54.762Z,101301.63
2023-02-17T00:31:23.783Z,101296.09
2023-02-17T00:33:56.166Z,101299.47
2023-02-17T00:36:25.506Z,101302.06
2023-02-17T00:38:57.764Z,101303.38
2023-02-17T00:41:28.951Z,101299.34
2023-02-17T00:43:58.658Z,101303.44
2023-02-17T00:46:26.994Z,101303.16
2023-02-17T00:48:54.725Z,101301.34
2023-02-17T00:51:22.182Z,101304.69
2023-02-17T00:53:50.056Z,101303.66
2023-02-17T00:56:17.804Z,101304.25
2023-02-17T00:58:46.202Z,101309.13
2023-02-17T01:01:13.973Z,101299.41
2023-02-17T01:03:42.147Z,101304.94
2023-02-17T01:06:21.805Z,101312.25
2023-02-17T01:08:49.074Z,101318.97
2023-02-17T01:11:24.185Z,101311.34
2023-02-17T01:13:52.340Z,101308.75
2023-02-17T01:16:25.035Z,101300.78
2023-02-17T01:18:53.211Z,101310.41
2023-02-17T01:21:28.010Z,101303.13
2023-02-17T01:24:00.430Z,101302.69
2023-02-17T01:26:32.816Z,101305.91
2023-02-17T01:29:03.857Z,101305.59
2023-02-17T01:31:31.156Z,101297.53
2023-02-17T01:34:01.188Z,101294.38
2023-02-17T01:36:29.160Z,101296.97
2023-02-17T01:38:56.356Z,101298.06
2023-02-17T01:41:27.087Z,101301.41
2023-02-17T01:44:20.643Z,101293.81
2023-02-17T01:46:51.937Z,101298.34
2023-02-17T01:49:39.710Z,101298.53
2023-02-17T01:52:17.561Z,101291.69
2023-02-17T01:54:57.818Z,101304.50
2023-02-17T01:57:33.097Z,101289.53
2023-02-17T02:00:00.682Z,101291.69
2023-02-17T02:02:32.039Z,101284.09
2023-02-17T02:05:00.600Z,101281.66
2023-02-17T02:07:34.719Z,101282.88
2023-02-17T02:10:03.178Z,101288.63
2023-02-17T02:12:35.659Z,101281.66
2023-02-17T02:15:10.110Z,101285.31
2023-02-17T02:18:06.518Z,101279.38
2023-02-17T02:20:52.441Z,101278.94
2023-02-17T02:23:41.299Z,101281.53
2023-02-17T02:27:14.588Z,101284.56
2023-02-17T02:30:23.980Z,101283.47
2023-02-17T02:33:26.357Z,101287.13
2023-02-17T02:36:20.144Z,101284.41
2023-02-17T02:39:10.330Z,101282.25
2023-02-17T02:41:48.575Z,101277.25
2023-02-17T02:44:21.067Z,101277.88
2023-02-17T02:47:06.817Z,101282.91
2023-02-17T02:49:36.732Z,101274.38
2023-02-17T02:52:33.636Z,101268.09
2023-02-17T02:55:37.822Z,101266.91
2023-02-17T02:58:39.194Z,101267.97
2023-02-17T03:01:36.174Z,101267.50
2023-02-17T03:04:36.154Z,101259.44
2023-02-17T03:07:21.254Z,101266.47
2023-02-17T03:09:58.577Z,101273.16
2023-02-17T03:12:29.077Z,101266.16
2023-02-17T03:15:30.840Z,101268.59
2023-02-17T03:18:02.900Z,101273.28
2023-02-17T03:20:40.185Z,101268.28
2023-02-17T03:23:07.991Z,101269.19
2023-02-17T03:25:35.906Z,101272.22
2023-02-17T03:28:04.411Z,101271.91
2023-02-17T03:30:31.676Z,101276.78
2023-02-17T03:32:58.925Z,101275.59
2023-02-17T03:35:26.073Z,101274.50
2023-02-17T03:37:53.285Z,101271.00
2023-02-17T03:40:20.626Z,101272.69
2023-02-17T03:42:47.967Z,101276.66
2023-02-17T03:45:15.206Z,101271.94
2023-02-17T03:47:42.330Z,101276.81
2023-02-17T03:50:10.094Z,101276.66
2023-02-17T03:52:37.400Z,101280.00
2023-02-17T03:55:05.151Z,101280.13
2023-02-17T03:57:34.699Z,101276.94
2023-02-17T04:00:02.050Z,101285.00
2023-02-17T04:02:29.486Z,101280.44
2023-02-17T04:04:56.740Z,101281.94
2023-02-17T04:07:23.964Z,101285.91
2023-02-17T04:09:51.144Z,101294.28
2023-02-17T04:12:18.513Z,101302.03
2023-02-17T04:14:45.683Z,101310.84
2023-02-17T04:17:12.922Z,101312.66
2023-02-17T04:19:40.289Z,101306.56
2023-02-17T04:22:08.942Z,101309.16
2023-02-17T04:24:37.264Z,101309.94
2023-02-17T04:27:05.886Z,101302.78
2023-02-17T04:29:33.721Z,101304.75
2023-02-17T04:32:01.201Z,101313.91
2023-02-17T04:34:28.631Z,101305.06
2023-02-17T04:36:55.932Z,101309.63
2023-02-17T04:39:23.080Z,101312.66
2023-02-17T04:41:50.256Z,101309.91
2023-02-17T04:44:17.405Z,101306.53
2023-02-17T04:46:44.583Z,101302.56
2023-02-17T04:49:11.844Z,101305.44
2023-02-17T04:51:38.968Z,101304.84
2023-02-17T04:54:06.117Z,101312.25
2023-02-17T04:56:33.342Z,101309.34
2023-02-17T04:59:00.527Z,101313.56
2023-02-17T05:01:27.846Z,101310.66
2023-02-17T05:03:54.961Z,101306.78
2023-02-17T05:06:22.107Z,101309.19
2023-02-17T05:08:50.579Z,101310.47
2023-02-17T05:11:17.796Z,101321.34
2023-02-17T05:13:45.046Z,101321.44
2023-02-17T05:16:12.218Z,101333.84
2023-02-17T05:18:39.461Z,101332.00
2023-02-17T05:21:06.809Z,101334.56
2023-02-17T05:23:41.125Z,101338.38
2023-02-17T05:26:09.637Z,101344.41
2023-02-17T05:28:37.303Z,101340.34
2023-02-17T05:31:05.054Z,101333.97
2023-02-17T05:33:32.855Z,101335.91
2023-02-17T05:36:07.814Z,101339.72
2023-02-17T05:38:36.630Z,101340.59
2023-02-17T05:41:04.464Z,101339.09
2023-02-17T05:43:32.631Z,101350.59
2023-02-17T05:46:04.424Z,101347.63
2023-02-17T05:48:32.324Z,101352.06
2023-02-17T05:51:00.232Z,101351.66
2023-02-17T05:53:27.959Z,101343.66
2023-02-17T05:55:55.328Z,101351.25
2023-02-17T05:58:22.643Z,101345.84
2023-02-17T06:00:50.073Z,101345.19
2023-02-17T06:03:17.976Z,101346.41
2023-02-17T06:05:45.916Z,101341.06
2023-02-17T06:08:13.070Z,101342.91
2023-02-17T06:10:42.168Z,101344.44
2023-02-17T06:13:09.566Z,101349.25
2023-02-17T06:15:36.882Z,101351.50
2023-02-17T06:18:04.274Z,101345.81
2023-02-17T06:20:31.519Z,101340.94
2023-02-17T06:22:58.818Z,101347.03
2023-02-17T06:25:25.929Z,101345.31
2023-02-17T06:27:54.259Z,101349.41
2023-02-17T06:30:21.909Z,101350.72
2023-02-17T06:32:49.054Z,101360.88
2023-02-17T06:35:16.941Z,101360.72
2023-02-17T06:37:44.513Z,101359.06
2023-02-17T06:40:12.735Z,101369.06
2023-02-17T06:42:39.865Z,101371.91
2023-02-17T06:45:07.956Z,101370.84
2023-02-17T06:47:35.835Z,101367.66
2023-02-17T06:50:03.381Z,101371.66
2023-02-17T06:52:30.607Z,101377.56
2023-02-17T06:54:57.808Z,101379.41
2023-02-17T06:57:24.982Z,101377.88
2023-02-17T06:59:52.156Z,101382.00
2023-02-17T07:02:19.447Z,101390.66
2023-02-17T07:04:46.716Z,101393.88
2023-02-17T07:07:14.201Z,101386.75
2023-02-17T07:09:41.437Z,101392.16
2023-02-17T07:12:08.672Z,101393.09
2023-02-17T07:14:36.346Z,101392.66
2023-02-17T07:17:03.646Z,101389.31
2023-02-17T07:19:31.079Z,101391.19
2023-02-17T07:21:58.477Z,101391.50
2023-02-17T07:24:26.225Z,101398.84
2023-02-17T07:26:55.948Z,101400.97
2023-02-17T07:29:23.820Z,101398.25
2023-02-17T07:31:51.074Z,101398.13
2023-02-17T07:34:18.776Z,101403.31
2023-02-17T07:36:45.910Z,101411.38
2023-02-17T07:39:13.086Z,101409.00
2023-02-17T07:41:40.286Z,101407.00
2023-02-17T07:44:10.582Z,101403.47
2023-02-17T07:46:39.800Z,101405.47
2023-02-17T07:49:06.963Z,101411.72
2023-02-17T07:51:34.280Z,101404.38
2023-02-17T07:54:02.561Z,101402.69
2023-02-17T07:56:30.061Z,101409.69
2023-02-17T07:58:57.204Z,101412.25
2023-02-17T08:01:26.058Z,101408.59
2023-02-17T08:03:53.947Z,101413.59
2023-02-17T08:06:24.880Z,101408.25
2023-02-17T08:09:12.481Z,101410.03
2023-02-17T08:11:59.885Z,101406.63
2023-02-17T08:14:31.214Z,101412.66
2023-02-17T08:16:59.110Z,101424.53
2023-02-17T08:19:31.747Z,101417.81
2023-02-17T08:22:06.815Z,101414.72
2023-02-17T08:24:33.952Z,101419.13
2023-02-17T08:27:01.121Z,101436.44
2023-02-17T08:29:28.316Z,101431.06
2023-02-17T08:31:55.506Z,101429.00
2023-02-17T08:34:22.755Z,101436.13
2023-02-17T08:36:50.107Z,101437.91
2023-02-17T08:39:18.480Z,101440.44
2023-02-17T08:41:46.572Z,101430.09
2023-02-17T08:44:18.784Z,101426.94
2023-02-17T08:46:48.189Z,101434.19
2023-02-17T08:49:25.974Z,101428.91
2023-02-17T08:51:53.652Z,101420.88
2023-02-17T08:54:20.837Z,101420.81
2023-02-17T08:56:48.034Z,101426.19
2023-02-17T08:59:15.404Z,101428.34
2023-02-17T09:01:43.544Z,101427.22
2023-02-17T09:04:14.544Z,101426.63
2023-02-17T09:06:52.486Z,101427.09
2023-02-17T09:09:26.923Z,101433.25
2023-02-17T09:11:57.806Z,101435.34
2023-02-17T09:14:25.898Z,101423.88
2023-02-17T09:16:55.168Z,101430.13
2023-02-17T09:19:23.820Z,101427.91
2023-02-17T09:21:51.060Z,101423.72
2023-02-17T09:24:19.204Z,101426.34
2023-02-17T09:26:46.560Z,101428.13
2023-02-17T09:29:13.741Z,101421.84
2023-02-17T09:31:41.315Z,101422.97
2023-02-17T09:34:08.676Z,101422.69
2023-02-17T09:36:42.063Z,101422.63
2023-02-17T09:39:12.312Z,101409.53
2023-02-17T09:41:52.306Z,101414.69
2023-02-17T09:44:27.636Z,101413.34
2023-02-17T09:47:11.132Z,101414.13
2023-02-17T09:49:45.019Z,101412.00
2023-02-17T09:52:27.980Z,101421.91
2023-02-17T09:55:15.220Z,101410.31
2023-02-17T09:58:18.809Z,101414.19
2023-02-17T10:00:53.486Z,101413.03
2023-02-17T10:03:41.665Z,101421.81
2023-02-17T10:06:38.333Z,101419.41
2023-02-17T10:09:25.624Z,101418.44
2023-02-17T10:12:24.506Z,101421.50
2023-02-17T10:15:17.978Z,101398.66
2023-02-17T10:17:59.261Z,101404.09
2023-02-17T10:20:36.946Z,101410.13
2023-02-17T10:23:27.014Z,101403.59
2023-02-17T10:26:09.152Z,101405.88
2023-02-17T10:29:44.231Z,101404.53
2023-02-17T10:32:41.706Z,101405.88
2023-02-17T10:35:47.443Z,101406.00
2023-02-17T10:38:42.595Z,101405.28
2023-02-17T10:41:16.144Z,101394.28
2023-02-17T10:43:44.784Z,101396.91
2023-02-17T10:46:15.947Z,101394.69
2023-02-17T10:48:53.582Z,101382.16
2023-02-17T10:51:28.683Z,101376.50
2023-02-17T10:54:25.865Z,101373.09
2023-02-17T10:56:58.236Z,101367.13
2023-02-17T10:59:39.141Z,101354.63
2023-02-17T11:02:40.281Z,101355.88
2023-02-17T11:05:09.065Z,101356.69
2023-02-17T11:07:41.892Z,101336.63
2023-02-17T11:10:24.318Z,101346.00
2023-02-17T11:12:52.264Z,101324.69
2023-02-17T11:15:24.781Z,101335.28
2023-02-17T11:17:53.237Z,101328.47
2023-02-17T11:20:20.360Z,101322.91
2023-02-17T11:23:04.891Z,101316.34
2023-02-17T11:25:37.589Z,101317.56
2023-02-17T11:28:14.028Z,101303.84
2023-02-17T11:30:53.736Z,101297.13
2023-02-17T11:33:34.049Z,101293.88
2023-02-17T11:36:02.964Z,101286.19
2023-02-17T11:38:45.843Z,101308.56
2023-02-17T11:41:13.664Z,101293.69
2023-02-17T11:43:59.187Z,101292.72
2023-02-17T11:46:47.461Z,101298.88
2023-02-17T11:49:32.056Z,101273.66
2023-02-17T11:52:27.370Z,101279.28
2023-02-17T11:55:46.291Z,101273.38
2023-02-17T11:58:33.810Z,101274.09
2023-02-17T12:01:41.063Z,101264.81
2023-02-17T12:04:38.411Z,101260.75
2023-02-17T12:07:47.626Z,101271.56
2023-02-17T12:10:46.416Z,101251.34
2023-02-17T12:13:28.570Z,101254.97
2023-02-17T12:16:46.041Z,101239.56
2023-02-17T12:20:09.368Z,101244.13
2023-02-17T12:23:28.632Z,101242.41
2023-02-17T12:26:29.910Z,101231.00
2023-02-17T12:29:57.577Z,101229.50
2023-02-17T12:33:33.818Z,101224.78
2023-02-17T12:36:14.786Z,101218.72
2023-02-17T12:38:54.559Z,101211.94
2023-02-17T12:41:36.782Z,101213.47
2023-02-17T12:44:23.018Z,101214.25
2023-02-17T12:46:57.704Z,101204.97
2023-02-17T12:49:42.913Z,101199.13
2023-02-17T12:52:36.584Z,101192.97
2023-02-17T12:55:25.038Z,101195.34
2023-02-17T12:58:12.352Z,101197.47
2023-02-17T13:01:00.004Z,101197.06
2023-02-17T13:03:34.695Z,101193.22
2023-02-17T13:06:43.080Z,101187.94
2023-02-17T13:09:41.098Z,101188.19
2023-02-17T13:12:28.396Z,101188.41
2023-02-17T13:14:59.112Z,101192.66
2023-02-17T13:17:38.468Z,101181.72
2023-02-17T13:20:11.997Z,101183.66
2023-02-17T13:22:42.258Z,101175.94
2023-02-17T13:25:32.097Z,101171.00
2023-02-17T13:28:01.793Z,101161.94
2023-02-17T13:30:43.033Z,101171.66
2023-02-17T13:33:47.969Z,101161.69
2023-02-17T13:36:22.345Z,101160.06
2023-02-17T13:39:29.526Z,101162.94
2023-02-17T13:42:01.102Z,101155.16
2023-02-17T13:44:41.798Z,101157.00
2023-02-17T13:47:36.534Z,101151.75
2023-02-17T13:50:06.524Z,101145.56
2023-02-17T13:52:33.960Z,101139.53
2023-02-17T13:55:06.078Z,101141.03
2023-02-17T13:57:37.599Z,101134.31
2023-02-17T14:00:18.296Z,101139.63
2023-02-17T14:02:59.647Z,101135.53
2023-02-17T14:05:33.153Z,101133.06
2023-02-17T14:08:08.223Z,101134.75
2023-02-17T14:10:36.676Z,101122.72
2023-02-17T14:13:04.443Z,101123.44
2023-02-17T14:15:31.762Z,101125.16
2023-02-17T14:17:58.928Z,101123.94
2023-02-17T14:20:36.304Z,101118.34
2023-02-17T14:23:13.374Z,101123.09
2023-02-17T14:25:47.521Z,101121.25
2023-02-17T14:28:21.104Z,101113.66
2023-02-17T14:30:48.948Z,101109.03
2023-02-17T14:33:25.719Z,101108.88
2023-02-17T14:36:07.808Z,101124.75
2023-02-17T14:38:41.078Z,101118.47
2023-02-17T14:41:09.607Z,101119.34
2023-02-17T14:43:37.413Z,101120.16
2023-02-17T14:46:05.536Z,101118.47
2023-02-17T14:48:33.053Z,101115.75
2023-02-17T14:51:00.345Z,101119.63
2023-02-17T14:53:35.364Z,101117.59
2023-02-17T14:56:36.840Z,101114.13
2023-02-17T14:59:04.912Z,101119.41
2023-02-17T15:01:32.195Z,101101.81
2023-02-17T15:03:59.423Z,101104.69
2023-02-17T15:06:38.928Z,101098.78
2023-02-17T15:09:17.851Z,101095.56
2023-02-17T15:11:46.361Z,101095.94
2023-02-17T15:14:20.361Z,101095.09
2023-02-17T15:16:48.761Z,101099.31
2023-02-17T15:19:18.030Z,101100.88
2023-02-17T15:21:50.582Z,101094.13
2023-02-17T15:24:25.699Z,101090.47
2023-02-17T15:26:55.792Z,101091.84
2023-02-17T15:29:25.181Z,101088.31
2023-02-17T15:31:54.730Z,101080.88
2023-02-17T15:34:30.791Z,101078.63
2023-02-17T15:37:00.747Z,101083.44
2023-02-17T15:39:28.589Z,101083.25
2023-02-17T15:42:06.075Z,101087.56
2023-02-17T15:44:50.571Z,101076.81
2023-02-17T15:47:20.461Z,101074.94
2023-02-17T15:49:48.041Z,101070.50
2023-02-17T15:52:16.003Z,101071.34
2023-02-17T15:54:43.870Z,101081.00
2023-02-17T15:57:31.350Z,101084.88
2023-02-17T15:59:58.842Z,101088.50
2023-02-17T16:02:26.200Z,101094.66
2023-02-17T16:04:53.392Z,101089.59
2023-02-17T16:07:20.567Z,101093.41
2023-02-17T16:09:47.802Z,101087.34
2023-02-17T16:12:26.537Z,101097.06
2023-02-17T16:14:56.033Z,101094.06
2023-02-17T16:17:23.848Z,101099.72
2023-02-17T16:19:51.415Z,101101.56
2023-02-17T16:22:18.697Z,101089.53
2023-02-17T16:24:45.952Z,101092.22
2023-02-17T16:27:16.839Z,101098.72
2023-02-17T16:29:44.340Z,101093.59
2023-02-17T16:32:13.727Z,101094.75
2023-02-17T16:34:41.830Z,101096.59
2023-02-17T16:37:16.383Z,101098.63
2023-02-17T16:39:44.370Z,101095.81
2023-02-17T16:42:14.680Z,101111.28
2023-02-17T16:44:42.519Z,101108.97
2023-02-17T16:47:20.964Z,101104.28
2023-02-17T16:49:48.753Z,101112.22
2023-02-17T16:52:26.812Z,101115.88
2023-02-17T16:54:55.022Z,101109.00
2023-02-17T16:57:22.793Z,101118.72
2023-02-17T16:59:50.115Z,101127.41
2023-02-17T17:02:17.348Z,101114.00
2023-02-17T17:04:44.677Z,101121.25
2023-02-17T17:07:15.973Z,101124.66
2023-02-17T17:09:48.768Z,101127.50
2023-02-17T17:12:23.463Z,101138.13
2023-02-17T17:14:50.691Z,101142.63
2023-02-17T17:17:17.831Z,101140.66
2023-02-17T17:19:45.950Z,101150.97
2023-02-17T17:22:13.051Z,101153.06
2023-02-17T17:24:40.244Z,101154.16
2023-02-17T17:27:07.484Z,101162.22
2023-02-17T17:29:34.649Z,101162.00
2023-02-17T17:32:02.015Z,101167.75
2023-02-17T17:34:29.508Z,101164.72
2023-02-17T17:36:57.269Z,101174.84
2023-02-17T17:39:25.183Z,101171.59
2023-02-17T17:41:52.496Z,101177.41
2023-02-17T17:44:20.556Z,101168.81
2023-02-17T17:46:47.763Z,101184.78
2023-02-17T17:49:18.090Z,101180.84
2023-02-17T17:51:45.435Z,101176.06
2023-02-17T17:54:12.646Z,101186.09
2023-02-17T17:56:43.127Z,101178.72
2023-02-17T17:59:12.964Z,101183.69
2023-02-17T18:01:40.565Z,101191.41
2023-02-17T18:04:09.313Z,101198.88
2023-02-17T18:06:51.661Z,101197.78
2023-02-17T18:09:32.059Z,101199.47
2023-02-17T18:12:08.692Z,101207.34
2023-02-17T18:14:39.300Z,101210.06
2023-02-17T18:17:10.267Z,101210.13
2023-02-17T18:19:38.456Z,101208.91
2023-02-17T18:22:05.768Z,101209.56
2023-02-17T18:24:33.033Z,101210.78
2023-02-17T18:27:00.203Z,101207.75
2023-02-17T18:29:27.857Z,101208.69
2023-02-17T18:31:55.169Z,101207.56
2023-02-17T18:34:22.412Z,101207.34
2023-02-17T18:36:49.626Z,101213.91
2023-02-17T18:39:16.754Z,101215.00
2023-02-17T18:41:44.288Z,101218.44
2023-02-17T18:44:13.596Z,101216.13
2023-02-17T18:46:41.604Z,101226.41
2023-02-17T18:49:09.572Z,101227.28
2023-02-17T18:51:37.107Z,101225.31
2023-02-17T18:54:05.171Z,101227.81
2023-02-17T18:56:33.869Z,101226.59
2023-02-17T18:59:02.026Z,101235.31
2023-02-17T19:01:36.220Z,101236.53
2023-02-17T19:04:04.859Z,101244.19
2023-02-17T19:06:34.765Z,101240.56
2023-02-17T19:09:04.462Z,101244.47
2023-02-17T19:11:33.861Z,101247.97
2023-02-17T19:14:03.375Z,101246.31
2023-02-17T19:16:32.541Z,101252.47
2023-02-17T19:19:00.720Z,101257.94
2023-02-17T19:21:28.113Z,101255.66
2023-02-17T19:23:55.873Z,101256.16
2023-02-17T19:26:23.325Z,101254.09
2023-02-17T19:28:50.479Z,101256.88
2023-02-17T19:31:20.758Z,101253.22
2023-02-17T19:33:48.215Z,101255.63
2023-02-17T19:36:20.707Z,101254.97
2023-02-17T19:38:49.769Z,101260.63
2023-02-17T19:41:19.119Z,101252.78
2023-02-17T19:43:46.503Z,101258.94
2023-02-17T19:46:16.449Z,101263.38
2023-02-17T19:48:43.760Z,101269.41
2023-02-17T19:51:15.256Z,101267.69
2023-02-17T19:53:43.957Z,101262.91
2023-02-17T19:56:23.144Z,101268.72
2023-02-17T19:58:51.546Z,101271.88
2023-02-17T20:01:27.495Z,101283.34
2023-02-17T20:03:56.236Z,101282.88
2023-02-17T20:06:44.858Z,101274.94
2023-02-17T20:09:19.887Z,101282.41
2023-02-17T20:11:52.234Z,101284.84
2023-02-17T20:14:20.679Z,101282.34
2023-02-17T20:16:53.146Z,101278.22
2023-02-17T20:19:20.369Z,101269.00
2023-02-17T20:21:47.579Z,101280.75
2023-02-17T20:24:15.320Z,101278.16
2023-02-17T20:26:47.399Z,101280.28
2023-02-17T20:29:15.314Z,101298.97
2023-02-17T20:31:43.389Z,101287.16
2023-02-17T20:34:39.209Z,101288.22
2023-02-17T20:37:08.500Z,101295.41
2023-02-17T20:39:36.292Z,101295.16
2023-02-17T20:42:04.145Z,101297.31
2023-02-17T20:44:31.478Z,101303.25
2023-02-17T20:46:59.082Z,101308.66
2023-02-17T20:49:27.044Z,101304.06
2023-02-17T20:51:54.903Z,101301.50
2023-02-17T20:54:24.658Z,101310.13
2023-02-17T20:56:52.368Z,101303.25
2023-02-17T20:59:20.518Z,101305.47
2023-02-17T21:01:48.400Z,101307.41
2023-02-17T21:04:15.667Z,101294.53
2023-02-17T21:06:43.219Z,101305.38
2023-02-17T21:09:17.903Z,101294.97
2023-02-17T21:11:46.755Z,101299.66
2023-02-17T21:14:14.195Z,101303.06
2023-02-17T21:16:41.584Z,101309.31
2023-02-17T21:19:08.991Z,101310.63
2023-02-17T21:21:36.406Z,101308.53
2023-02-17T21:24:04.746Z,101311.91
2023-02-17T21:26:33.510Z,101313.50
2023-02-17T21:29:00.856Z,101317.91
2023-02-17T21:31:31.157Z,101320.78
2023-02-17T21:33:59.817Z,101318.44
2023-02-17T21:36:29.177Z,101314.91
2023-02-17T21:38:57.168Z,101313.75
2023-02-17T21:41:27.549Z,101310.19
2023-02-17T21:44:14.126Z,101317.38
2023-02-17T21:46:43.174Z,101302.25
2023-02-17T21:49:11.998Z,101292.09
2023-02-17T21:51:40.744Z,101299.66
2023-02-17T21:54:09.577Z,101299.91
2023-02-17T21:56:37.007Z,101291.56
2023-02-17T21:59:05.401Z,101287.00
2023-02-17T22:01:32.947Z,101298.31
2023-02-17T22:04:00.393Z,101287.66
2023-02-17T22:06:37.136Z,101297.34
2023-02-17T22:09:07.920Z,101293.25
2023-02-17T22:11:42.001Z,101296.09
2023-02-17T22:14:16.624Z,101298.75
2023-02-17T22:16:44.285Z,101294.06
2023-02-17T22:19:22.800Z,101292.75
2023-02-17T22:21:51.633Z,101301.63
2023-02-17T22:24:20.742Z,101297.34
2023-02-17T22:26:49.786Z,101299.06
2023-02-17T22:29:16.930Z,101296.06
2023-02-17T22:31:44.249Z,101298.13
2023-02-17T22:34:15.335Z,101291.38
2023-02-17T22:36:42.592Z,101284.34
2023-02-17T22:39:09.901Z,101290.56
2023-02-17T22:41:38.768Z,101290.56
2023-02-17T22:44:07.399Z,101292.38
2023-02-17T22:46:35.220Z,101286.28
2023-02-17T22:49:02.646Z,101291.88
2023-02-17T22:51:39.045Z,101288.50
2023-02-17T22:54:07.604Z,101285.09
2023-02-17T22:56:35.143Z,101280.69
2023-02-17T22:59:04.256Z,101284.59
2023-02-17T23:01:34.912Z,101278.84
2023-02-17T23:04:02.730Z,101282.66
2023-02-17T23:06:37.354Z,101292.13
2023-02-17T23:09:07.488Z,101290.13
2023-02-17T23:11:51.031Z,101288.31
2023-02-17T23:14:36.896Z,101283.75
2023-02-17T23:17:13.220Z,101290.47
2023-02-17T23:19:42.426Z,101287.47
2023-02-17T23:22:16.197Z,101293.34
2023-02-17T23:24:46.398Z,101298.47
2023-02-17T23:27:14.489Z,101284.66
2023-02-17T23:29:42.265Z,101294.25
2023-02-17T23:32:09.924Z,101293.00
2023-02-17T23:34:38.122Z,101299.59
2023-02-17T23:37:05.273Z,101286.97
2023-02-17T23:39:36.991Z,101278.41
2023-02-17T23:42:04.284Z,101286.16
2023-02-17T23:44:31.419Z,101275.13
2023-02-17T23:46:58.649Z,101274.59
2023-02-17T23:49:25.767Z,101279.94
2023-02-17T23:51:53.338Z,101279.38
2023-02-17T23:54:20.509Z,101274.06
2023-02-17T23:56:47.706Z,101266.78
2023-02-17T23:59:14.942Z,101270.75
